createdAt,value
2022-10-28T00:01:29.986Z,39.17
2022-10-28T00:04:00.360Z,37.92
2022-10-28T00:06:34.476Z,46.65
2022-10-28T00:09:03.792Z,40.55
2022-10-28T00:11:34.691Z,42.33
2022-10-28T00:14:07.329Z,40.40
2022-10-28T00:16:40.340Z,45.08
2022-10-28T00:19:11.071Z,36.80
2022-10-28T00:21:43.878Z,38.08
2022-10-28T00:24:14.494Z,37.30
2022-10-28T00:26:46.344Z,37.30
2022-10-28T00:29:16.291Z,39.45
2022-10-28T00:31:47.311Z,35.35
2022-10-28T00:34:19.822Z,36.85
2022-10-28T00:36:48.094Z,40.15
2022-10-28T00:39:21.089Z,39.25
2022-10-28T00:41:55.407Z,38.25
2022-10-28T00:44:53.532Z,49.95
2022-10-28T00:47:57.655Z,41.67
2022-10-28T00:50:41.214Z,39.90
2022-10-28T00:53:14.673Z,37.83
2022-10-28T00:55:45.256Z,41.60
2022-10-28T00:58:12.816Z,40.60
2022-10-28T01:00:40.678Z,39.13
2022-10-28T01:03:10.608Z,36.90
2022-10-28T01:05:41.753Z,39.25
2022-10-28T01:08:09.517Z,32.77
2022-10-28T01:10:54.818Z,37.83
2022-10-28T01:13:37.144Z,37.65
2022-10-28T01:16:35.578Z,34.10
2022-10-28T01:19:36.625Z,38.45
2022-10-28T01:22:03.913Z,34.40
2022-10-28T01:24:43.405Z,38.40
2022-10-28T01:27:37.955Z,37.92
2022-10-28T01:30:21.552Z,40.83
2022-10-28T01:32:58.499Z,37.30
2022-10-28T01:35:54.274Z,37.65
2022-10-28T01:39:00.269Z,36.47
2022-10-28T01:41:34.229Z,37.58
2022-10-28T01:44:20.889Z,32.75
2022-10-28T01:47:20.304Z,33.45
2022-10-28T01:50:05.714Z,34.55
2022-10-28T01:52:33.330Z,32.70
2022-10-28T01:55:11.924Z,33.53
2022-10-28T01:57:42.105Z,28.38
2022-10-28T02:00:13.792Z,31.90
2022-10-28T02:02:45.173Z,31.98
2022-10-28T02:05:45.029Z,32.42
2022-10-28T02:08:21.087Z,32.88
2022-10-28T02:11:22.673Z,33.05
2022-10-28T02:14:10.337Z,32.05
2022-10-28T02:16:51.648Z,31.27
2022-10-28T02:19:39.095Z,31.27
2022-10-28T02:22:18.601Z,31.45
2022-10-28T02:24:48.459Z,30.73
2022-10-28T02:27:32.466Z,40.88
2022-10-28T02:30:15.424Z,33.10
2022-10-28T02:32:46.935Z,30.83
2022-10-28T02:35:25.051Z,31.77
2022-10-28T02:37:54.129Z,27.98
2022-10-28T02:40:27.968Z,30.63
2022-10-28T02:43:00.021Z,32.05
2022-10-28T02:48:07.482Z,30.00
2022-10-28T02:50:38.234Z,34.72
2022-10-28T02:53:14.662Z,26.85
2022-10-28T02:55:44.940Z,28.83
2022-10-28T02:58:12.487Z,25.80
2022-10-28T03:00:44.948Z,29.50
2022-10-28T03:03:12.943Z,27.95
2022-10-28T03:05:42.839Z,32.58
2022-10-28T03:08:10.227Z,40.22
2022-10-28T03:10:37.356Z,37.28
2022-10-28T03:13:04.695Z,31.10
2022-10-28T03:15:31.927Z,29.85
2022-10-28T03:17:59.295Z,29.40
2022-10-28T03:20:26.419Z,32.15
2022-10-28T03:22:53.988Z,29.25
2022-10-28T03:25:21.412Z,29.30
2022-10-28T03:27:48.754Z,24.38
2022-10-28T03:30:18.502Z,27.10
2022-10-28T03:32:45.953Z,27.58
2022-10-28T03:35:13.235Z,25.92
2022-10-28T03:37:44.439Z,27.48
2022-10-28T03:40:12.300Z,26.58
2022-10-28T03:42:42.644Z,25.90
2022-10-28T03:45:10.268Z,28.05
2022-10-28T03:47:37.743Z,26.25
2022-10-28T03:50:05.136Z,26.75
2022-10-28T03:52:33.107Z,25.40
2022-10-28T03:55:00.289Z,27.02
2022-10-28T03:57:31.657Z,28.50
2022-10-28T03:59:59.036Z,26.63
2022-10-28T04:02:26.963Z,28.23
2022-10-28T04:04:54.272Z,32.10
2022-10-28T04:07:21.750Z,28.63
2022-10-28T04:09:51.469Z,31.75
2022-10-28T04:12:19.228Z,29.73
2022-10-28T04:14:46.476Z,37.35
2022-10-28T04:17:14.006Z,31.88
2022-10-28T04:19:41.145Z,28.35
2022-10-28T04:22:09.815Z,36.78
2022-10-28T04:24:36.990Z,38.10
2022-10-28T04:27:04.491Z,34.30
2022-10-28T04:29:32.186Z,31.50
2022-10-28T04:31:59.717Z,34.67
2022-10-28T04:34:27.273Z,31.98
2022-10-28T04:36:54.703Z,34.55
2022-10-28T04:39:21.859Z,39.17
2022-10-28T04:41:49.315Z,38.97
2022-10-28T04:44:16.552Z,42.25
2022-10-28T04:46:44.960Z,40.88
2022-10-28T04:49:12.659Z,38.15
2022-10-28T04:51:41.564Z,38.53
2022-10-28T04:54:11.406Z,40.55
2022-10-28T04:56:38.801Z,50.65
2022-10-28T04:59:05.947Z,47.90
2022-10-28T05:01:33.629Z,45.28
2022-10-28T05:04:00.906Z,50.88
2022-10-28T05:06:28.267Z,54.17
2022-10-28T05:08:55.736Z,52.80
2022-10-28T05:11:23.156Z,49.03
2022-10-28T05:13:53.123Z,51.22
2022-10-28T05:16:20.871Z,55.55
2022-10-28T05:18:48.350Z,61.10
2022-10-28T05:21:15.784Z,67.53
2022-10-28T05:23:43.094Z,65.72
2022-10-28T05:26:13.183Z,63.33
2022-10-28T05:28:40.400Z,67.75
2022-10-28T05:31:07.829Z,73.72
2022-10-28T05:33:35.107Z,85.38
2022-10-28T05:36:02.519Z,78.28
2022-10-28T05:38:29.768Z,102.93
2022-10-28T05:40:57.151Z,115.53
2022-10-28T05:43:24.422Z,81.65
2022-10-28T05:45:53.087Z,123.38
2022-10-28T05:48:20.225Z,128.32
2022-10-28T05:50:47.647Z,130.93
2022-10-28T05:53:15.295Z,124.88
2022-10-28T05:55:46.681Z,345.80
2022-10-28T05:58:15.581Z,192.23
2022-10-28T06:00:42.936Z,107.25
2022-10-28T06:03:12.287Z,282.80
2022-10-28T06:05:42.388Z,354.10
2022-10-28T06:08:11.434Z,236.57
2022-10-28T06:10:39.006Z,256.25
2022-10-28T06:13:05.264Z,290.63
2022-10-28T06:15:32.749Z,202.02
2022-10-28T06:18:00.009Z,275.90
2022-10-28T06:20:27.439Z,318.88
2022-10-28T06:22:55.733Z,332.98
2022-10-28T06:25:25.327Z,265.00
2022-10-28T06:27:57.698Z,279.38
2022-10-28T06:30:26.354Z,290.30
2022-10-28T06:32:56.815Z,454.88
2022-10-28T06:35:24.304Z,262.20
2022-10-28T06:37:57.562Z,438.00
2022-10-28T06:40:25.749Z,401.10
2022-10-28T06:43:00.122Z,292.77
2022-10-28T06:45:28.966Z,404.35
2022-10-28T06:48:04.030Z,360.63
2022-10-28T06:50:33.815Z,357.90
2022-10-28T06:53:01.232Z,274.08
2022-10-28T06:55:29.474Z,443.95
2022-10-28T06:58:03.410Z,201.38
2022-10-28T07:00:37.714Z,272.63
2022-10-28T07:03:05.748Z,162.65
2022-10-28T07:05:35.716Z,286.48
2022-10-28T07:08:02.910Z,321.10
2022-10-28T07:10:30.447Z,403.40
2022-10-28T07:12:57.984Z,194.05
2022-10-28T07:15:25.470Z,190.93
2022-10-28T07:17:53.996Z,409.42
2022-10-28T07:20:22.511Z,269.13
2022-10-28T07:22:59.395Z,196.82
2022-10-28T07:25:28.952Z,225.05
2022-10-28T07:27:59.734Z,144.88
2022-10-28T07:30:28.702Z,212.80
2022-10-28T07:32:58.628Z,188.57
2022-10-28T07:35:26.073Z,132.48
2022-10-28T07:37:53.946Z,132.32
2022-10-28T07:40:24.125Z,149.13
2022-10-28T07:42:51.729Z,99.20
2022-10-28T07:45:19.634Z,127.68
2022-10-28T07:47:47.141Z,125.88
2022-10-28T07:50:14.554Z,103.65
2022-10-28T07:52:41.709Z,90.68
2022-10-28T07:55:11.025Z,82.55
2022-10-28T07:57:38.318Z,76.72
2022-10-28T08:00:07.351Z,69.35
2022-10-28T08:02:42.126Z,58.85
2022-10-28T08:05:10.032Z,56.60
2022-10-28T08:07:38.743Z,60.22
2022-10-28T08:10:07.191Z,62.45
2022-10-28T08:12:34.637Z,61.90
2022-10-28T08:15:02.845Z,60.13
2022-10-28T08:17:30.430Z,53.50
2022-10-28T08:19:57.920Z,50.80
2022-10-28T08:22:25.221Z,51.83
2022-10-28T08:24:52.679Z,47.05
2022-10-28T08:27:19.824Z,46.70
2022-10-28T08:29:47.208Z,42.17
2022-10-28T08:32:14.392Z,38.72
2022-10-28T08:34:43.994Z,35.83
2022-10-28T08:37:11.466Z,30.48
2022-10-28T08:39:38.854Z,27.58
2022-10-28T08:42:09.123Z,27.40
2022-10-28T08:44:55.588Z,26.45
2022-10-28T08:50:37.946Z,25.98
2022-10-28T08:53:15.241Z,22.80
2022-10-28T08:55:50.028Z,24.55
2022-10-28T08:58:38.815Z,24.25
2022-10-28T09:01:14.198Z,22.30
2022-10-28T09:03:45.332Z,26.08
2022-10-28T09:06:12.801Z,23.08
2022-10-28T09:08:46.670Z,24.10
2022-10-28T09:11:24.801Z,23.08
2022-10-28T09:14:03.480Z,23.55
2022-10-28T09:16:48.930Z,21.90
2022-10-28T09:19:31.917Z,18.80
2022-10-28T09:22:08.571Z,21.05
2022-10-28T09:24:53.012Z,18.75
2022-10-28T09:28:02.010Z,21.65
2022-10-28T09:30:44.710Z,20.10
2022-10-28T09:33:57.856Z,20.45
2022-10-28T09:36:35.687Z,18.80
2022-10-28T09:39:05.743Z,18.73
2022-10-28T09:41:37.695Z,17.90
2022-10-28T09:44:18.572Z,17.63
2022-10-28T09:46:52.736Z,16.38
2022-10-28T09:49:28.497Z,17.48
2022-10-28T09:52:15.200Z,17.75
2022-10-28T09:54:51.528Z,16.83
2022-10-28T09:57:29.196Z,16.88
2022-10-28T09:59:56.751Z,17.23
2022-10-28T10:02:27.783Z,19.40
2022-10-28T10:04:57.543Z,18.92
2022-10-28T10:07:48.163Z,21.27
2022-10-28T10:10:31.470Z,17.52
2022-10-28T10:13:04.491Z,17.00
2022-10-28T10:15:46.631Z,17.63
2022-10-28T10:18:20.014Z,20.13
2022-10-28T10:20:50.788Z,16.63
2022-10-28T10:23:24.195Z,20.07
2022-10-28T10:26:13.588Z,17.85
2022-10-28T10:28:49.142Z,17.13
2022-10-28T10:31:25.563Z,19.23
2022-10-28T10:33:56.178Z,17.08
2022-10-28T10:36:29.670Z,18.92
2022-10-28T10:38:59.170Z,22.42
2022-10-28T10:41:55.274Z,15.98
2022-10-28T10:44:22.535Z,13.20
2022-10-28T10:47:06.547Z,15.25
2022-10-28T10:49:37.768Z,12.15
2022-10-28T10:52:15.930Z,13.13
2022-10-28T10:54:56.626Z,14.70
2022-10-28T10:57:28.849Z,15.82
2022-10-28T10:59:59.586Z,17.05
2022-10-28T11:02:40.090Z,16.48
2022-10-28T11:05:09.976Z,14.57
2022-10-28T11:07:45.232Z,13.82
2022-10-28T11:10:27.675Z,18.20
2022-10-28T11:13:26.139Z,15.45
2022-10-28T11:16:04.865Z,13.70
2022-10-28T11:18:43.864Z,13.13
2022-10-28T11:21:32.326Z,15.70
2022-10-28T11:24:08.984Z,17.77
2022-10-28T11:26:45.158Z,17.70
2022-10-28T11:29:15.768Z,14.57
2022-10-28T11:31:50.994Z,14.68
2022-10-28T11:34:36.858Z,13.75
2022-10-28T11:37:09.563Z,13.00
2022-10-28T11:39:46.056Z,17.98
2022-10-28T11:42:35.056Z,15.02
2022-10-28T11:45:14.611Z,12.68
2022-10-28T11:48:00.162Z,15.32
2022-10-28T11:50:45.969Z,15.95
2022-10-28T11:53:31.659Z,19.08
2022-10-28T11:56:11.311Z,16.63
2022-10-28T11:59:00.265Z,15.35
2022-10-28T12:01:44.864Z,17.48
2022-10-28T12:04:42.387Z,15.00
2022-10-28T12:07:22.075Z,18.45
2022-10-28T12:09:59.507Z,18.27
2022-10-28T12:12:29.924Z,20.63
2022-10-28T12:15:34.406Z,17.42
2022-10-28T12:18:11.418Z,17.15
2022-10-28T12:20:59.711Z,17.95
2022-10-28T12:23:29.593Z,16.48
2022-10-28T12:25:59.298Z,15.43
2022-10-28T12:28:42.412Z,19.70
2022-10-28T12:31:22.955Z,15.93
2022-10-28T12:33:55.811Z,21.07
2022-10-28T12:36:38.488Z,18.60
2022-10-28T12:39:18.530Z,14.00
2022-10-28T12:42:10.125Z,18.25
2022-10-28T12:47:23.935Z,16.13
2022-10-28T12:49:57.081Z,15.77
2022-10-28T12:52:42.388Z,15.60
2022-10-28T12:55:39.920Z,14.73
2022-10-28T12:58:24.236Z,16.48
2022-10-28T13:00:57.440Z,13.65
2022-10-28T13:03:24.658Z,15.85
2022-10-28T13:06:06.022Z,17.27
2022-10-28T13:09:04.375Z,16.42
2022-10-28T13:11:43.700Z,15.98
2022-10-28T13:14:29.669Z,14.98
2022-10-28T13:16:59.864Z,18.08
2022-10-28T13:19:51.086Z,13.98
2022-10-28T13:22:30.525Z,17.13
2022-10-28T13:25:39.286Z,18.92
2022-10-28T13:28:13.792Z,15.93
2022-10-28T13:30:59.385Z,19.27
2022-10-28T13:33:28.759Z,15.95
2022-10-28T13:36:18.007Z,20.02
2022-10-28T13:39:06.942Z,18.83
2022-10-28T13:41:40.954Z,20.25
2022-10-28T13:44:10.813Z,18.98
2022-10-28T13:46:59.998Z,21.20
2022-10-28T13:49:31.168Z,20.65
2022-10-28T13:52:07.309Z,19.35
2022-10-28T13:54:43.775Z,18.67
2022-10-28T13:57:26.663Z,15.98
2022-10-28T14:00:04.423Z,20.67
2022-10-28T14:02:56.665Z,15.20
2022-10-28T14:05:47.155Z,16.25
2022-10-28T14:08:35.570Z,19.92
2022-10-28T14:11:24.058Z,20.42
2022-10-28T14:13:59.953Z,22.33
2022-10-28T14:16:34.077Z,24.20
2022-10-28T14:19:21.379Z,19.55
2022-10-28T14:22:02.285Z,22.70
2022-10-28T14:24:32.977Z,18.75
2022-10-28T14:27:10.002Z,21.83
2022-10-28T14:29:50.653Z,28.73
2022-10-28T14:32:33.161Z,21.58
2022-10-28T14:35:15.524Z,25.70
2022-10-28T14:37:48.970Z,31.77
2022-10-28T14:40:38.673Z,19.35
2022-10-28T14:43:11.189Z,23.90
2022-10-28T14:45:50.561Z,22.92
2022-10-28T14:48:44.205Z,24.75
2022-10-28T14:51:24.493Z,23.40
2022-10-28T14:53:58.892Z,23.13
2022-10-28T14:56:29.838Z,21.00
2022-10-28T14:59:36.766Z,23.17
2022-10-28T15:02:17.800Z,22.45
2022-10-28T15:04:47.452Z,21.67
2022-10-28T15:07:17.738Z,33.92
2022-10-28T15:09:48.879Z,23.38
2022-10-28T15:12:18.007Z,25.77
2022-10-28T15:14:47.901Z,26.45
2022-10-28T15:17:18.693Z,28.40
2022-10-28T15:19:49.410Z,21.73
2022-10-28T15:22:30.836Z,20.63
2022-10-28T15:24:59.385Z,24.98
2022-10-28T15:27:29.908Z,23.35
2022-10-28T15:29:57.986Z,21.17
2022-10-28T15:32:29.737Z,22.48
2022-10-28T15:34:57.706Z,24.65
2022-10-28T15:37:36.601Z,22.17
2022-10-28T15:40:40.848Z,24.00
2022-10-28T15:43:26.560Z,22.20
2022-10-28T15:45:54.388Z,27.50
2022-10-28T15:48:27.317Z,22.52
2022-10-28T15:51:17.773Z,20.95
2022-10-28T15:53:53.925Z,21.63
2022-10-28T15:56:29.906Z,24.55
2022-10-28T15:59:07.196Z,27.67
2022-10-28T16:01:35.410Z,27.65
2022-10-28T16:04:02.793Z,24.42
2022-10-28T16:06:32.698Z,20.40
2022-10-28T16:09:20.137Z,22.40
2022-10-28T16:11:56.298Z,32.13
2022-10-28T16:14:39.660Z,23.67
2022-10-28T16:17:20.105Z,24.88
2022-10-28T16:20:15.373Z,25.67
2022-10-28T16:22:46.710Z,26.30
2022-10-28T16:25:16.845Z,25.70
2022-10-28T16:27:44.300Z,23.10
2022-10-28T16:30:12.015Z,27.85
2022-10-28T16:32:49.632Z,25.10
2022-10-28T16:35:19.143Z,24.02
2022-10-28T16:37:50.679Z,25.55
2022-10-28T16:43:15.362Z,24.98
2022-10-28T16:45:42.575Z,28.17
2022-10-28T16:48:13.847Z,30.15
2022-10-28T16:50:42.920Z,29.15
2022-10-28T16:53:12.958Z,23.92
2022-10-28T16:55:40.750Z,30.42
2022-10-28T16:58:08.296Z,31.30
2022-10-28T17:00:36.403Z,31.75
2022-10-28T17:03:04.120Z,36.50
2022-10-28T17:05:31.628Z,29.05
2022-10-28T17:07:59.933Z,30.63
2022-10-28T17:10:27.682Z,35.08
2022-10-28T17:12:55.593Z,35.97
2022-10-28T17:15:23.386Z,37.78
2022-10-28T17:17:52.329Z,37.25
2022-10-28T17:20:19.968Z,36.55
2022-10-28T17:22:47.809Z,37.90
2022-10-28T17:25:15.114Z,39.22
2022-10-28T17:27:42.915Z,48.53
2022-10-28T17:30:10.708Z,41.95
2022-10-28T17:32:38.145Z,48.65
2022-10-28T17:35:05.623Z,61.58
2022-10-28T17:37:33.813Z,60.55
2022-10-28T17:40:01.169Z,64.75
2022-10-28T17:42:29.092Z,61.75
2022-10-28T17:44:56.386Z,64.35
2022-10-28T17:47:23.813Z,68.43
2022-10-28T17:49:51.010Z,67.25
2022-10-28T17:52:18.470Z,70.68
2022-10-28T17:54:46.131Z,72.75
2022-10-28T17:57:13.569Z,72.05
2022-10-28T17:59:40.813Z,74.45
2022-10-28T18:02:12.677Z,72.43
2022-10-28T18:04:40.765Z,71.38
2022-10-28T18:07:08.451Z,79.45
2022-10-28T18:09:35.685Z,85.00
2022-10-28T18:12:03.168Z,71.60
2022-10-28T18:14:30.701Z,68.90
2022-10-28T18:16:58.131Z,74.95
2022-10-28T18:19:25.442Z,68.32
2022-10-28T18:21:52.816Z,74.05
2022-10-28T18:24:23.328Z,79.20
2022-10-28T18:26:54.458Z,75.28
2022-10-28T18:29:21.767Z,74.97
2022-10-28T18:31:49.278Z,73.93
2022-10-28T18:34:16.657Z,70.32
2022-10-28T18:36:44.195Z,76.90
2022-10-28T18:39:11.414Z,76.70
2022-10-28T18:41:42.014Z,67.85
2022-10-28T18:44:12.161Z,76.45
2022-10-28T18:46:40.310Z,67.15
2022-10-28T18:49:07.632Z,66.25
2022-10-28T18:51:35.701Z,68.07
2022-10-28T18:54:03.589Z,62.75
2022-10-28T18:56:30.859Z,63.67
2022-10-28T18:58:58.937Z,61.67
2022-10-28T19:01:28.739Z,56.83
2022-10-28T19:03:58.350Z,54.55
2022-10-28T19:06:29.959Z,58.63
2022-10-28T19:08:59.574Z,55.35
2022-10-28T19:11:30.401Z,56.28
2022-10-28T19:14:00.249Z,58.00
2022-10-28T19:16:28.608Z,63.60
2022-10-28T19:18:57.296Z,54.85
2022-10-28T19:21:25.670Z,61.80
2022-10-28T19:23:52.999Z,65.63
2022-10-28T19:26:20.838Z,58.17
2022-10-28T19:28:49.338Z,62.63
2022-10-28T19:31:19.535Z,70.00
2022-10-28T19:33:46.852Z,61.55
2022-10-28T19:36:18.816Z,61.92
2022-10-28T19:41:16.464Z,64.68
2022-10-28T19:43:44.909Z,64.03
2022-10-28T19:46:18.551Z,59.75
2022-10-28T19:48:48.111Z,62.80
2022-10-28T19:51:18.041Z,51.85
2022-10-28T19:53:48.939Z,59.95
2022-10-28T19:56:19.424Z,60.85
2022-10-28T19:58:51.431Z,60.10
2022-10-28T20:03:49.419Z,51.58
2022-10-28T20:06:19.232Z,51.40
2022-10-28T20:08:48.152Z,48.00
2022-10-28T20:11:21.382Z,50.53
2022-10-28T20:13:54.009Z,49.80
2022-10-28T20:16:21.695Z,45.63
2022-10-28T20:18:49.208Z,47.10
2022-10-28T20:21:18.922Z,43.45
2022-10-28T20:26:23.786Z,45.28
2022-10-28T20:28:51.043Z,39.38
2022-10-28T20:31:21.042Z,37.55
2022-10-28T20:33:56.868Z,39.67
2022-10-28T20:36:32.690Z,44.83
2022-10-28T20:39:09.674Z,47.22
2022-10-28T20:41:38.586Z,45.65
2022-10-28T20:44:06.584Z,51.22
2022-10-28T20:46:34.677Z,44.38
2022-10-28T20:49:02.955Z,48.90
2022-10-28T20:51:31.737Z,38.40
2022-10-28T20:53:59.969Z,45.38
2022-10-28T20:56:29.755Z,47.53
2022-10-28T20:59:00.378Z,41.70
2022-10-28T21:01:45.926Z,54.03
2022-10-28T21:04:13.785Z,41.72
2022-10-28T21:06:41.067Z,46.47
2022-10-28T21:09:09.035Z,39.22
2022-10-28T21:11:36.254Z,41.33
2022-10-28T21:14:03.743Z,32.30
2022-10-28T21:16:31.419Z,36.80
2022-10-28T21:19:02.324Z,32.88
2022-10-28T21:21:30.348Z,35.25
2022-10-28T21:24:00.464Z,33.47
2022-10-28T21:26:27.792Z,30.70
2022-10-28T21:28:56.497Z,26.50
2022-10-28T21:31:24.779Z,27.45
2022-10-28T21:33:53.431Z,23.42
2022-10-28T21:36:21.944Z,29.48
2022-10-28T21:38:54.316Z,23.63
2022-10-28T21:41:22.611Z,20.52
2022-10-28T21:43:51.694Z,25.88
2022-10-28T21:46:20.352Z,21.30
2022-10-28T21:48:48.054Z,22.08
2022-10-28T21:51:16.806Z,22.27
2022-10-28T21:53:45.226Z,24.20
2022-10-28T21:56:19.039Z,23.83
2022-10-28T21:58:48.443Z,19.77
2022-10-28T22:01:21.293Z,28.67
2022-10-28T22:03:49.291Z,22.45
2022-10-28T22:06:16.583Z,22.08
2022-10-28T22:08:44.275Z,22.40
2022-10-28T22:11:17.231Z,21.75
2022-10-28T22:13:45.137Z,19.30
2022-10-28T22:16:14.958Z,19.45
2022-10-28T22:18:42.660Z,19.63
2022-10-28T22:21:11.859Z,21.08
2022-10-28T22:23:39.240Z,21.80
2022-10-28T22:26:09.053Z,20.70
2022-10-28T22:28:37.019Z,20.85
2022-10-28T22:31:07.657Z,21.42
2022-10-28T22:33:35.821Z,17.13
2022-10-28T22:36:14.961Z,23.75
2022-10-28T22:38:42.797Z,19.27
2022-10-28T22:41:14.845Z,22.45
2022-10-28T22:46:11.075Z,20.20
2022-10-28T22:48:38.522Z,18.38
2022-10-28T22:51:06.385Z,16.95
2022-10-28T22:53:33.652Z,22.00
2022-10-28T22:56:01.383Z,22.55
2022-10-28T22:58:28.789Z,21.98
2022-10-28T23:01:17.363Z,20.33
2022-10-28T23:03:48.348Z,22.10
2022-10-28T23:06:19.285Z,20.23
2022-10-28T23:08:47.237Z,20.40
2022-10-28T23:11:15.671Z,20.17
2022-10-28T23:13:43.152Z,20.92
2022-10-28T23:16:12.925Z,17.00
2022-10-28T23:18:41.136Z,21.27
2022-10-28T23:21:18.453Z,20.20
2022-10-28T23:23:51.096Z,17.38
2022-10-28T23:26:21.587Z,19.83
2022-10-28T23:28:54.076Z,20.90
2022-10-28T23:31:22.530Z,21.38
2022-10-28T23:33:50.434Z,18.80
2022-10-28T23:36:17.882Z,19.05
2022-10-28T23:38:45.144Z,19.40
2022-10-28T23:41:18.647Z,20.42
2022-10-28T23:43:47.069Z,22.90
2022-10-28T23:46:14.611Z,22.88
2022-10-28T23:48:41.783Z,17.98
2022-10-28T23:51:09.461Z,18.73
2022-10-28T23:53:36.867Z,18.27
2022-10-28T23:56:04.478Z,16.90
2022-10-28T23:58:31.652Z,19.05
